PWSweather.com
Personal Weather Stations
Station Observations
MAGOO
Kiefer, OK 74041

Kiefer, OK 74041

Lat: 35.9417305, Lon: -96.03782654

Elevation: 699

Station Type: WMR100N

Latest ConditionsUpdated 10:50:00 AM CDT Saturday, Apr 25, 2015
Currently Today's Max Today's Min Today's Average
Temperature 72.8°F22.7°C 72.8°F22.7°C 59.7°F15.4°C 62.6°F17.0°C
Dew Point 24.7°F-4.1°C 59.0°F15.0°C 24.7°F-4.1°C 48.8°F9.3°C
Winds 7.0 mph W11.3 kmh W 9.0 mph S14.5 kmh S - 6.0 mph 9.7 kmh
Wind Gusts 13.0 mph20.9 kmh 22.0 mph35.4 kmh - -
Humidity 60% 100% 60% 81%
Pressure 29.56 in1001.0 mb 29.58 in1001.7 mb 29.47 in998.0 mb -
Hour Temp Dew Point Humidity Winds Wind Gusts Pressure Precip Precip Rate Daily Precip Total
10:50 AM 72.8°F22.7°C 24.7°F-4.1°C 60% 7.0 mph W11.3 kmh W 13.0 mph20.9 kmh 29.56 in1001.0 mb 0.00 in0.0 mm 0.00 in0.0 mm 0.00 in0.0 mm
10:45 AM 72.4°F22.4°C 28.3°F-2.1°C 63% 5.0 mph WSW8.0 kmh WSW 9.0 mph14.5 kmh 29.54 in1000.3 mb 0.00 in0.0 mm 0.00 in0.0 mm 0.00 in0.0 mm
10:40 AM 72.0°F22.2°C 28.3°F-2.1°C 64% 5.0 mph WSW8.0 kmh WSW 6.0 mph9.7 kmh 29.54 in1000.3 mb 0.00 in0.0 mm 0.00 in0.0 mm 0.00 in0.0 mm
10:35 AM 71.5°F21.9°C 30.2°F-1.0°C 66% 7.0 mph WSW11.3 kmh WSW 10.0 mph16.1 kmh 29.55 in1000.7 mb 0.00 in0.0 mm 0.00 in0.0 mm 0.00 in0.0 mm
10:30 AM 71.1°F21.7°C 30.3°F-0.9°C 66% 7.0 mph W11.3 kmh W 11.0 mph17.7 kmh 29.55 in1000.7 mb 0.00 in0.0 mm 0.00 in0.0 mm 0.00 in0.0 mm
10:25 AM 70.8°F21.6°C 31.0°F-0.6°C 67% 6.0 mph WSW9.7 kmh WSW 8.0 mph12.9 kmh 29.55 in1000.7 mb 0.00 in0.0 mm 0.00 in0.0 mm 0.00 in0.0 mm
10:20 AM 70.4°F21.3°C 30.8°F-0.7°C 67% 6.0 mph WSW9.7 kmh WSW 8.0 mph12.9 kmh 29.56 in1001.0 mb 0.00 in0.0 mm 0.00 in0.0 mm 0.00 in0.0 mm
10:15 AM 70.1°F21.2°C 30.8°F-0.7°C 67% 8.0 mph WSW12.9 kmh WSW 11.0 mph17.7 kmh 29.58 in1001.7 mb 0.00 in0.0 mm 0.00 in0.0 mm 0.00 in0.0 mm
10:10 AM 69.8°F21.0°C 31.8°F-0.1°C 68% 7.0 mph WSW11.3 kmh WSW 10.0 mph16.1 kmh 29.58 in1001.7 mb 0.00 in0.0 mm 0.00 in0.0 mm 0.00 in0.0 mm
10:05 AM 69.4°F20.8°C 33.1°F0.6°C 70% 6.0 mph WSW9.7 kmh WSW 8.0 mph12.9 kmh 29.56 in1001.0 mb 0.00 in0.0 mm 0.00 in0.0 mm 0.00 in0.0 mm
10:00 AM 68.9°F20.5°C 34.1°F1.2°C 72% 5.0 mph WSW8.0 kmh WSW 9.0 mph14.5 kmh 29.55 in1000.7 mb 0.00 in0.0 mm 0.00 in0.0 mm 0.00 in0.0 mm
09:55 AM 68.4°F20.2°C 34.3°F1.3°C 72% 7.0 mph WSW11.3 kmh WSW 13.0 mph20.9 kmh 29.55 in1000.7 mb 0.00 in0.0 mm 0.00 in0.0 mm 0.00 in0.0 mm
09:50 AM 67.9°F19.9°C 35.3°F1.8°C 74% 6.0 mph WSW9.7 kmh WSW 8.0 mph12.9 kmh 29.55 in1000.7 mb 0.00 in0.0 mm 0.00 in0.0 mm 0.00 in0.0 mm
09:45 AM 67.5°F19.7°C 35.6°F2.0°C 75% 6.0 mph WSW9.7 kmh WSW 7.0 mph11.3 kmh 29.55 in1000.7 mb 0.00 in0.0 mm 0.00 in0.0 mm 0.00 in0.0 mm
09:40 AM 67.2°F19.6°C 35.5°F1.9°C 75% 7.0 mph SW11.3 kmh SW 10.0 mph16.1 kmh 29.55 in1000.7 mb 0.00 in0.0 mm 0.00 in0.0 mm 0.00 in0.0 mm
09:35 AM 66.9°F19.4°C 35.5°F1.9°C 75% 7.0 mph WSW11.3 kmh WSW 11.0 mph17.7 kmh 29.55 in1000.7 mb 0.00 in0.0 mm 0.00 in0.0 mm 0.00 in0.0 mm
09:30 AM 66.6°F19.2°C 36.3°F2.4°C 77% 8.0 mph WSW12.9 kmh WSW 11.0 mph17.7 kmh 29.55 in1000.7 mb 0.00 in0.0 mm 0.00 in0.0 mm 0.00 in0.0 mm
09:25 AM 66.4°F19.1°C 36.4°F2.4°C 77% 6.0 mph WSW9.7 kmh WSW 8.0 mph12.9 kmh 29.55 in1000.7 mb 0.00 in0.0 mm 0.00 in0.0 mm 0.00 in0.0 mm
09:20 AM 66.0°F18.9°C 36.7°F2.6°C 78% 6.0 mph WSW9.7 kmh WSW 9.0 mph14.5 kmh 29.55 in1000.7 mb 0.00 in0.0 mm 0.00 in0.0 mm 0.00 in0.0 mm
09:15 AM 65.7°F18.7°C 36.5°F2.5°C 78% 6.0 mph SW9.7 kmh SW 10.0 mph16.1 kmh 29.55 in1000.7 mb 0.00 in0.0 mm 0.00 in0.0 mm 0.00 in0.0 mm
09:10 AM 65.4°F18.6°C 36.9°F2.7°C 79% 6.0 mph SW9.7 kmh SW 10.0 mph16.1 kmh 29.55 in1000.7 mb 0.00 in0.0 mm 0.00 in0.0 mm 0.00 in0.0 mm
09:05 AM 65.0°F18.3°C 36.8°F2.7°C 79% 6.0 mph WSW9.7 kmh WSW 11.0 mph17.7 kmh 29.55 in1000.7 mb 0.00 in0.0 mm 0.00 in0.0 mm 0.00 in0.0 mm
09:00 AM 64.7°F18.2°C 37.1°F2.8°C 80% 5.0 mph SW8.0 kmh SW 9.0 mph14.5 kmh 29.55 in1000.7 mb 0.00 in0.0 mm 0.00 in0.0 mm 0.00 in0.0 mm
08:55 AM 64.4°F18.0°C 36.9°F2.7°C 80% 6.0 mph WSW9.7 kmh WSW 8.0 mph12.9 kmh 29.55 in1000.7 mb 0.00 in0.0 mm 0.00 in0.0 mm 0.00 in0.0 mm
08:50 AM 64.1°F17.8°C 37.3°F2.9°C 81% 6.0 mph WSW9.7 kmh WSW 9.0 mph14.5 kmh 29.55 in1000.7 mb 0.00 in0.0 mm 0.00 in0.0 mm 0.00 in0.0 mm
08:45 AM 63.9°F17.7°C 37.3°F2.9°C 81% 6.0 mph WSW9.7 kmh WSW 10.0 mph16.1 kmh 29.55 in1000.7 mb 0.00 in0.0 mm 0.00 in0.0 mm 0.00 in0.0 mm
08:40 AM 63.6°F17.6°C 37.5°F3.1°C 82% 6.0 mph SW9.7 kmh SW 10.0 mph16.1 kmh 29.56 in1001.0 mb 0.00 in0.0 mm 0.00 in0.0 mm 0.00 in0.0 mm
08:35 AM 63.3°F17.4°C 38.1°F3.4°C 83% 7.0 mph SW11.3 kmh SW 11.0 mph17.7 kmh 29.56 in1001.0 mb 0.00 in0.0 mm 0.00 in0.0 mm 0.00 in0.0 mm
08:30 AM 63.1°F17.3°C 38.7°F3.7°C 84% 5.0 mph SW8.0 kmh SW 10.0 mph16.1 kmh 29.56 in1001.0 mb 0.00 in0.0 mm 0.00 in0.0 mm 0.00 in0.0 mm
08:25 AM 62.8°F17.1°C 39.0°F3.9°C 85% 6.0 mph WSW9.7 kmh WSW 9.0 mph14.5 kmh 29.56 in1001.0 mb 0.00 in0.0 mm 0.00 in0.0 mm 0.00 in0.0 mm
08:20 AM 62.6°F17.0°C 39.5°F4.2°C 87% 6.0 mph SW9.7 kmh SW 7.0 mph11.3 kmh 29.56 in1001.0 mb 0.00 in0.0 mm 0.00 in0.0 mm 0.00 in0.0 mm
08:15 AM 62.3°F16.8°C 40.2°F4.6°C 88% 5.0 mph SW8.0 kmh SW 7.0 mph11.3 kmh 29.56 in1001.0 mb 0.00 in0.0 mm 0.00 in0.0 mm 0.00 in0.0 mm
08:10 AM 62.0°F16.7°C 40.6°F4.8°C 89% 5.0 mph SW8.0 kmh SW 8.0 mph12.9 kmh 29.56 in1001.0 mb 0.00 in0.0 mm 0.00 in0.0 mm 0.00 in0.0 mm
08:05 AM 61.7°F16.5°C 40.7°F4.8°C 90% 5.0 mph SW8.0 kmh SW 9.0 mph14.5 kmh 29.56 in1001.0 mb 0.00 in0.0 mm 0.00 in0.0 mm 0.00 in0.0 mm
08:00 AM 61.5°F16.4°C 41.2°F5.1°C 91% 6.0 mph SW9.7 kmh SW 9.0 mph14.5 kmh 29.56 in1001.0 mb 0.00 in0.0 mm 0.00 in0.0 mm 0.00 in0.0 mm
07:55 AM 61.2°F16.2°C 41.7°F5.4°C 93% 5.0 mph SW8.0 kmh SW 8.0 mph12.9 kmh 29.56 in1001.0 mb 0.00 in0.0 mm 0.00 in0.0 mm 0.00 in0.0 mm
07:50 AM 60.9°F16.1°C 42.1°F5.6°C 94% 5.0 mph SW8.0 kmh SW 6.0 mph9.7 kmh 29.56 in1001.0 mb 0.00 in0.0 mm 0.00 in0.0 mm 0.00 in0.0 mm
07:45 AM 60.7°F15.9°C 42.8°F6.0°C 96% 4.0 mph SW6.4 kmh SW 6.0 mph9.7 kmh 29.56 in1001.0 mb 0.00 in0.0 mm 0.00 in0.0 mm 0.00 in0.0 mm
07:40 AM 60.4°F15.8°C 43.1°F6.2°C 97% 5.0 mph SW8.0 kmh SW 6.0 mph9.7 kmh 29.56 in1001.0 mb 0.00 in0.0 mm 0.00 in0.0 mm 0.00 in0.0 mm
07:35 AM 60.2°F15.7°C 43.4°F6.3°C 98% 5.0 mph SW8.0 kmh SW 8.0 mph12.9 kmh 29.56 in1001.0 mb 0.00 in0.0 mm 0.00 in0.0 mm 0.00 in0.0 mm
07:30 AM 60.1°F15.6°C 43.8°F6.6°C 99% 5.0 mph SW8.0 kmh SW 8.0 mph12.9 kmh 29.56 in1001.0 mb 0.00 in0.0 mm 0.00 in0.0 mm 0.00 in0.0 mm
07:25 AM 59.9°F15.5°C 44.0°F6.7°C 100% 4.0 mph SW6.4 kmh SW 8.0 mph12.9 kmh 29.56 in1001.0 mb 0.00 in0.0 mm 0.00 in0.0 mm 0.00 in0.0 mm
07:20 AM 59.9°F15.5°C 44.2°F6.8°C 100% 4.0 mph SW6.4 kmh SW 6.0 mph9.7 kmh 29.55 in1000.7 mb 0.00 in0.0 mm 0.00 in0.0 mm 0.00 in0.0 mm
07:15 AM 59.7°F15.4°C 44.4°F6.9°C 100% 4.0 mph SW6.4 kmh SW 7.0 mph11.3 kmh 29.53 in1000.0 mb 0.00 in0.0 mm 0.00 in0.0 mm 0.00 in0.0 mm
07:10 AM 59.7°F15.4°C 44.5°F6.9°C - 4.0 mph SW6.4 kmh SW 7.0 mph11.3 kmh 29.53 in1000.0 mb 0.00 in0.0 mm 0.00 in0.0 mm 0.00 in0.0 mm
07:05 AM 59.7°F15.4°C 44.9°F7.2°C - 4.0 mph SW6.4 kmh SW 6.0 mph9.7 kmh 29.55 in1000.7 mb 0.00 in0.0 mm 0.00 in0.0 mm 0.00 in0.0 mm
07:00 AM 59.7°F15.4°C 45.1°F7.3°C - 4.0 mph SW6.4 kmh SW 6.0 mph9.7 kmh 29.56 in1001.0 mb 0.00 in0.0 mm 0.00 in0.0 mm 0.00 in0.0 mm
06:55 AM 59.7°F15.4°C 45.4°F7.4°C - 4.0 mph SW6.4 kmh SW 6.0 mph9.7 kmh 29.56 in1001.0 mb 0.00 in0.0 mm 0.00 in0.0 mm 0.00 in0.0 mm
06:50 AM 59.7°F15.4°C 45.4°F7.4°C - 4.0 mph SW6.4 kmh SW 6.0 mph9.7 kmh 29.55 in1000.7 mb 0.00 in0.0 mm 0.00 in0.0 mm 0.00 in0.0 mm
06:45 AM 59.8°F15.4°C 45.6°F7.6°C - 4.0 mph SW6.4 kmh SW 5.0 mph8.0 kmh 29.53 in1000.0 mb 0.00 in0.0 mm 0.00 in0.0 mm 0.00 in0.0 mm
06:40 AM 59.9°F15.5°C 46.0°F7.8°C - 4.0 mph SW6.4 kmh SW 6.0 mph9.7 kmh 29.53 in1000.0 mb 0.00 in0.0 mm 0.00 in0.0 mm 0.00 in0.0 mm
06:35 AM 60.1°F15.6°C 46.1°F7.8°C - 3.0 mph SW4.8 kmh SW 6.0 mph9.7 kmh 29.53 in1000.0 mb 0.00 in0.0 mm 0.00 in0.0 mm 0.00 in0.0 mm
06:30 AM 60.2°F15.7°C 46.3°F7.9°C - 4.0 mph SW6.4 kmh SW 6.0 mph9.7 kmh 29.53 in1000.0 mb 0.00 in0.0 mm 0.00 in0.0 mm 0.00 in0.0 mm
06:25 AM 60.3°F15.7°C 46.5°F8.1°C - 4.0 mph SW6.4 kmh SW 6.0 mph9.7 kmh 29.53 in1000.0 mb 0.00 in0.0 mm 0.00 in0.0 mm 0.00 in0.0 mm
06:20 AM 60.5°F15.8°C 47.0°F8.3°C - 4.0 mph SW6.4 kmh SW 5.0 mph8.0 kmh 29.53 in1000.0 mb 0.00 in0.0 mm 0.00 in0.0 mm 0.00 in0.0 mm
06:15 AM 60.7°F15.9°C 47.6°F8.7°C - 5.0 mph SW8.0 kmh SW 8.0 mph12.9 kmh 29.53 in1000.0 mb 0.00 in0.0 mm 0.00 in0.0 mm 0.00 in0.0 mm
06:10 AM 60.8°F16.0°C 48.1°F8.9°C - 4.0 mph SW6.4 kmh SW 10.0 mph16.1 kmh 29.53 in1000.0 mb 0.00 in0.0 mm 0.00 in0.0 mm 0.00 in0.0 mm
06:05 AM 61.0°F16.1°C 49.0°F9.4°C - 5.0 mph SW8.0 kmh SW 7.0 mph11.3 kmh 29.53 in1000.0 mb 0.00 in0.0 mm 0.00 in0.0 mm 0.00 in0.0 mm
06:00 AM 61.0°F16.1°C 49.8°F9.9°C - 5.0 mph SW8.0 kmh SW 8.0 mph12.9 kmh 29.53 in1000.0 mb 0.00 in0.0 mm 0.00 in0.0 mm 0.00 in0.0 mm
05:55 AM 61.2°F16.2°C 51.0°F10.6°C - 5.0 mph SW8.0 kmh SW 6.0 mph9.7 kmh 29.53 in1000.0 mb 0.00 in0.0 mm 0.00 in0.0 mm 0.00 in0.0 mm
05:50 AM 61.2°F16.2°C 52.1°F11.2°C - 5.0 mph SW8.0 kmh SW 7.0 mph11.3 kmh 29.51 in999.3 mb 0.00 in0.0 mm 0.00 in0.0 mm 0.00 in0.0 mm
05:45 AM 61.3°F16.3°C 53.1°F11.7°C - 6.0 mph SW9.7 kmh SW 10.0 mph16.1 kmh 29.50 in999.0 mb 0.00 in0.0 mm 0.00 in0.0 mm 0.00 in0.0 mm
05:40 AM 61.0°F16.1°C 54.4°F12.4°C - 7.0 mph SW11.3 kmh SW 13.0 mph20.9 kmh 29.50 in999.0 mb 0.00 in0.0 mm 0.00 in0.0 mm 0.00 in0.0 mm
05:35 AM 60.7°F15.9°C 55.0°F12.8°C - 5.0 mph SW8.0 kmh SW 11.0 mph17.7 kmh 29.50 in999.0 mb 0.00 in0.0 mm 0.00 in0.0 mm 0.00 in0.0 mm
05:30 AM 60.6°F15.9°C 55.3°F12.9°C - 6.0 mph SW9.7 kmh SW 11.0 mph17.7 kmh 29.50 in999.0 mb 0.00 in0.0 mm 0.00 in0.0 mm 0.00 in0.0 mm
05:25 AM 60.4°F15.8°C 55.5°F13.1°C - 4.0 mph SW6.4 kmh SW 9.0 mph14.5 kmh 29.50 in999.0 mb 0.00 in0.0 mm 0.00 in0.0 mm 0.00 in0.0 mm
05:20 AM 60.4°F15.8°C 55.6°F13.1°C - 4.0 mph SW6.4 kmh SW 6.0 mph9.7 kmh 29.50 in999.0 mb 0.00 in0.0 mm 0.00 in0.0 mm 0.00 in0.0 mm
05:15 AM 60.4°F15.8°C 55.5°F13.1°C - 4.0 mph SSW6.4 kmh SSW 8.0 mph12.9 kmh 29.50 in999.0 mb 0.00 in0.0 mm 0.00 in0.0 mm 0.00 in0.0 mm
05:10 AM 60.4°F15.8°C 55.6°F13.1°C - 4.0 mph SSW6.4 kmh SSW 6.0 mph9.7 kmh 29.50 in999.0 mb 0.00 in0.0 mm 0.00 in0.0 mm 0.00 in0.0 mm
05:05 AM 60.4°F15.8°C 55.9°F13.3°C - 5.0 mph SW8.0 kmh SW 7.0 mph11.3 kmh 29.50 in999.0 mb 0.00 in0.0 mm 0.00 in0.0 mm 0.00 in0.0 mm
05:00 AM 60.4°F15.8°C 55.9°F13.3°C - 4.0 mph S6.4 kmh S 9.0 mph14.5 kmh 29.50 in999.0 mb 0.00 in0.0 mm 0.00 in0.0 mm 0.00 in0.0 mm
04:55 AM 60.4°F15.8°C 55.9°F13.3°C - 4.0 mph SSW6.4 kmh SSW 6.0 mph9.7 kmh 29.50 in999.0 mb 0.00 in0.0 mm 0.00 in0.0 mm 0.00 in0.0 mm
04:50 AM 60.6°F15.9°C 56.0°F13.3°C - 5.0 mph S8.0 kmh S 8.0 mph12.9 kmh 29.50 in999.0 mb 0.00 in0.0 mm 0.00 in0.0 mm 0.00 in0.0 mm
04:45 AM 60.7°F15.9°C 56.1°F13.4°C - 4.0 mph SW6.4 kmh SW 9.0 mph14.5 kmh 29.50 in999.0 mb 0.00 in0.0 mm 0.00 in0.0 mm 0.00 in0.0 mm
04:40 AM 60.8°F16.0°C 55.9°F13.3°C - 6.0 mph SSW9.7 kmh SSW 10.0 mph16.1 kmh 29.50 in999.0 mb 0.00 in0.0 mm 0.00 in0.0 mm 0.00 in0.0 mm
04:35 AM 60.8°F16.0°C 55.9°F13.3°C - 5.0 mph S8.0 kmh S 9.0 mph14.5 kmh 29.50 in999.0 mb 0.00 in0.0 mm 0.00 in0.0 mm 0.00 in0.0 mm
04:30 AM 60.8°F16.0°C 55.8°F13.2°C - 5.0 mph SSW8.0 kmh SSW 10.0 mph16.1 kmh 29.50 in999.0 mb 0.00 in0.0 mm 0.00 in0.0 mm 0.00 in0.0 mm
04:25 AM 61.0°F16.1°C 55.7°F13.2°C - 4.0 mph S6.4 kmh S 9.0 mph14.5 kmh 29.50 in999.0 mb 0.00 in0.0 mm 0.00 in0.0 mm 0.00 in0.0 mm
04:20 AM 61.0°F16.1°C 55.8°F13.2°C - 5.0 mph S8.0 kmh S 10.0 mph16.1 kmh 29.48 in998.3 mb 0.00 in0.0 mm 0.00 in0.0 mm 0.00 in0.0 mm
04:15 AM 61.2°F16.2°C 56.0°F13.3°C - 6.0 mph SSW9.7 kmh SSW 11.0 mph17.7 kmh 29.47 in998.0 mb 0.00 in0.0 mm 0.00 in0.0 mm 0.00 in0.0 mm
04:10 AM 61.3°F16.3°C 56.1°F13.4°C - 6.0 mph S9.7 kmh S 12.0 mph19.3 kmh 29.47 in998.0 mb 0.00 in0.0 mm 0.00 in0.0 mm 0.00 in0.0 mm
04:05 AM 61.4°F16.3°C 56.0°F13.3°C - 6.0 mph S9.7 kmh S 11.0 mph17.7 kmh 29.47 in998.0 mb 0.00 in0.0 mm 0.00 in0.0 mm 0.00 in0.0 mm
04:00 AM 61.5°F16.4°C 56.0°F13.3°C - 7.0 mph S11.3 kmh S 15.0 mph24.1 kmh 29.47 in998.0 mb 0.00 in0.0 mm 0.00 in0.0 mm 0.00 in0.0 mm
03:55 AM 61.7°F16.5°C 56.1°F13.4°C - 9.0 mph S14.5 kmh S 12.0 mph19.3 kmh 29.47 in998.0 mb 0.00 in0.0 mm 0.00 in0.0 mm 0.00 in0.0 mm
03:50 AM 61.8°F16.6°C 56.2°F13.4°C - 7.0 mph S11.3 kmh S 11.0 mph17.7 kmh 29.48 in998.3 mb 0.00 in0.0 mm 0.00 in0.0 mm 0.00 in0.0 mm
03:45 AM 61.9°F16.6°C 56.4°F13.6°C - 7.0 mph S11.3 kmh S 13.0 mph20.9 kmh 29.50 in999.0 mb 0.00 in0.0 mm 0.00 in0.0 mm 0.00 in0.0 mm
03:40 AM 62.1°F16.7°C 56.5°F13.6°C - 5.0 mph S8.0 kmh S 11.0 mph17.7 kmh 29.50 in999.0 mb 0.00 in0.0 mm 0.00 in0.0 mm 0.00 in0.0 mm
03:35 AM 62.3°F16.8°C 56.7°F13.7°C - 5.0 mph SSW8.0 kmh SSW 12.0 mph19.3 kmh 29.48 in998.3 mb 0.00 in0.0 mm 0.00 in0.0 mm 0.00 in0.0 mm
03:30 AM 62.5°F16.9°C 56.9°F13.8°C - 6.0 mph S9.7 kmh S 13.0 mph20.9 kmh 29.47 in998.0 mb 0.00 in0.0 mm 0.00 in0.0 mm 0.00 in0.0 mm
03:25 AM 62.6°F17.0°C 57.0°F13.9°C - 6.0 mph SW9.7 kmh SW 9.0 mph14.5 kmh 29.47 in998.0 mb 0.00 in0.0 mm 0.00 in0.0 mm 0.00 in0.0 mm
03:20 AM 62.6°F17.0°C 57.2°F14.0°C - 7.0 mph S11.3 kmh S 12.0 mph19.3 kmh 29.48 in998.3 mb 0.00 in0.0 mm 0.00 in0.0 mm 0.00 in0.0 mm
03:15 AM 62.8°F17.1°C 57.5°F14.2°C - 7.0 mph S11.3 kmh S 13.0 mph20.9 kmh 29.50 in999.0 mb 0.00 in0.0 mm 0.00 in0.0 mm 0.00 in0.0 mm
03:10 AM 63.0°F17.2°C 57.8°F14.3°C - 6.0 mph S9.7 kmh S 10.0 mph16.1 kmh 29.50 in999.0 mb 0.00 in0.0 mm 0.00 in0.0 mm 0.00 in0.0 mm
03:05 AM 63.0°F17.2°C 58.0°F14.4°C - 7.0 mph S11.3 kmh S 16.0 mph25.7 kmh 29.50 in999.0 mb 0.00 in0.0 mm 0.00 in0.0 mm 0.00 in0.0 mm
03:00 AM 63.0°F17.2°C 58.3°F14.6°C - 9.0 mph S14.5 kmh S 15.0 mph24.1 kmh 29.50 in999.0 mb 0.00 in0.0 mm 0.00 in0.0 mm 0.00 in0.0 mm
02:55 AM 63.0°F17.2°C 58.4°F14.7°C - 9.0 mph S14.5 kmh S 11.0 mph17.7 kmh 29.50 in999.0 mb 0.00 in0.0 mm 0.00 in0.0 mm 0.00 in0.0 mm
02:50 AM 63.0°F17.2°C 58.6°F14.8°C - 8.0 mph S12.9 kmh S 13.0 mph20.9 kmh 29.50 in999.0 mb 0.00 in0.0 mm 0.00 in0.0 mm 0.00 in0.0 mm
02:45 AM 63.0°F17.2°C 58.7°F14.8°C - 9.0 mph S14.5 kmh S 18.0 mph29.0 kmh 29.50 in999.0 mb 0.00 in0.0 mm 0.00 in0.0 mm 0.00 in0.0 mm
02:40 AM 63.0°F17.2°C 58.8°F14.9°C - 8.0 mph S12.9 kmh S 15.0 mph24.1 kmh 29.50 in999.0 mb 0.00 in0.0 mm 0.00 in0.0 mm 0.00 in0.0 mm
02:35 AM 62.9°F17.2°C 59.0°F15.0°C - 8.0 mph S12.9 kmh S 17.0 mph27.4 kmh 29.50 in999.0 mb 0.00 in0.0 mm 0.00 in0.0 mm 0.00 in0.0 mm
02:30 AM 62.8°F17.1°C 58.8°F14.9°C - 8.0 mph S12.9 kmh S 13.0 mph20.9 kmh 29.50 in999.0 mb 0.00 in0.0 mm 0.00 in0.0 mm 0.00 in0.0 mm
02:25 AM 62.6°F17.0°C 58.7°F14.8°C - 9.0 mph S14.5 kmh S 13.0 mph20.9 kmh 29.50 in999.0 mb 0.00 in0.0 mm 0.00 in0.0 mm 0.00 in0.0 mm
02:20 AM 62.6°F17.0°C 58.7°F14.8°C - 8.0 mph S12.9 kmh S 13.0 mph20.9 kmh 29.50 in999.0 mb 0.00 in0.0 mm 0.00 in0.0 mm 0.00 in0.0 mm
02:15 AM 62.5°F16.9°C 58.7°F14.8°C - 9.0 mph S14.5 kmh S 15.0 mph24.1 kmh 29.50 in999.0 mb 0.00 in0.0 mm 0.00 in0.0 mm 0.00 in0.0 mm
02:10 AM 62.4°F16.9°C 58.8°F14.9°C - 9.0 mph S14.5 kmh S 13.0 mph20.9 kmh 29.50 in999.0 mb 0.00 in0.0 mm 0.00 in0.0 mm 0.00 in0.0 mm
02:05 AM 62.3°F16.8°C 58.7°F14.8°C - 8.0 mph S12.9 kmh S 13.0 mph20.9 kmh 29.51 in999.3 mb 0.00 in0.0 mm 0.00 in0.0 mm 0.00 in0.0 mm
02:00 AM 62.2°F16.8°C 58.6°F14.8°C - 9.0 mph S14.5 kmh S 13.0 mph20.9 kmh 29.53 in1000.0 mb 0.00 in0.0 mm 0.00 in0.0 mm 0.00 in0.0 mm
01:55 AM 62.1°F16.7°C 58.5°F14.7°C - 9.0 mph S14.5 kmh S 17.0 mph27.4 kmh 29.53 in1000.0 mb 0.00 in0.0 mm 0.00 in0.0 mm 0.00 in0.0 mm
01:50 AM 61.9°F16.6°C 58.3°F14.6°C - 9.0 mph S14.5 kmh S 16.0 mph25.7 kmh 29.53 in1000.0 mb 0.00 in0.0 mm 0.00 in0.0 mm 0.00 in0.0 mm
01:45 AM 61.8°F16.6°C 58.2°F14.6°C - 9.0 mph S14.5 kmh S 18.0 mph29.0 kmh 29.53 in1000.0 mb 0.00 in0.0 mm 0.00 in0.0 mm 0.00 in0.0 mm
01:40 AM 61.4°F16.3°C 57.7°F14.3°C - 8.0 mph S12.9 kmh S 22.0 mph35.4 kmh 29.53 in1000.0 mb 0.00 in0.0 mm 0.00 in0.0 mm 0.00 in0.0 mm
01:35 AM 61.2°F16.2°C 57.3°F14.1°C - 6.0 mph S9.7 kmh S 15.0 mph24.1 kmh 29.53 in1000.0 mb 0.00 in0.0 mm 0.00 in0.0 mm 0.00 in0.0 mm
01:30 AM 61.0°F16.1°C 57.1°F13.9°C - 6.0 mph S9.7 kmh S 12.0 mph19.3 kmh 29.53 in1000.0 mb 0.00 in0.0 mm 0.00 in0.0 mm 0.00 in0.0 mm
01:25 AM 61.0°F16.1°C 57.0°F13.9°C - 7.0 mph S11.3 kmh S 10.0 mph16.1 kmh 29.53 in1000.0 mb 0.00 in0.0 mm 0.00 in0.0 mm 0.00 in0.0 mm
01:20 AM 60.8°F16.0°C 56.6°F13.7°C - 6.0 mph S9.7 kmh S 10.0 mph16.1 kmh 29.53 in1000.0 mb 0.00 in0.0 mm 0.00 in0.0 mm 0.00 in0.0 mm
01:15 AM 60.8°F16.0°C 56.6°F13.7°C - 7.0 mph SSE11.3 kmh SSE 12.0 mph19.3 kmh 29.53 in1000.0 mb 0.00 in0.0 mm 0.00 in0.0 mm 0.00 in0.0 mm
01:10 AM 60.8°F16.0°C 56.6°F13.7°C - 7.0 mph SSE11.3 kmh SSE 12.0 mph19.3 kmh 29.53 in1000.0 mb 0.00 in0.0 mm 0.00 in0.0 mm 0.00 in0.0 mm
01:05 AM 60.8°F16.0°C 56.6°F13.7°C - 7.0 mph S11.3 kmh S 12.0 mph19.3 kmh 29.53 in1000.0 mb 0.00 in0.0 mm 0.00 in0.0 mm 0.00 in0.0 mm
01:00 AM 60.8°F16.0°C 56.3°F13.5°C - 7.0 mph SSE11.3 kmh SSE 15.0 mph24.1 kmh 29.53 in1000.0 mb 0.00 in0.0 mm 0.00 in0.0 mm 0.00 in0.0 mm
12:55 AM 60.8°F16.0°C 56.3°F13.5°C - 8.0 mph SSE12.9 kmh SSE 13.0 mph20.9 kmh 29.53 in1000.0 mb 0.00 in0.0 mm 0.00 in0.0 mm 0.00 in0.0 mm
12:50 AM 60.8°F16.0°C 56.2°F13.4°C - 6.0 mph S9.7 kmh S 11.0 mph17.7 kmh 29.54 in1000.3 mb 0.00 in0.0 mm 0.00 in0.0 mm 0.00 in0.0 mm
12:45 AM 60.7°F15.9°C 55.9°F13.3°C - 6.0 mph SSE9.7 kmh SSE 10.0 mph16.1 kmh 29.56 in1001.0 mb 0.00 in0.0 mm 0.00 in0.0 mm 0.00 in0.0 mm
12:40 AM 60.8°F16.0°C 55.8°F13.2°C - 8.0 mph S12.9 kmh S 13.0 mph20.9 kmh 29.56 in1001.0 mb 0.00 in0.0 mm 0.00 in0.0 mm 0.00 in0.0 mm
12:35 AM 60.6°F15.9°C 55.5°F13.1°C - 7.0 mph S11.3 kmh S 12.0 mph19.3 kmh 29.56 in1001.0 mb 0.00 in0.0 mm 0.00 in0.0 mm 0.00 in0.0 mm
12:30 AM 60.7°F15.9°C 55.5°F13.1°C - 7.0 mph SE11.3 kmh SE 10.0 mph16.1 kmh 29.56 in1001.0 mb 0.00 in0.0 mm 0.00 in0.0 mm 0.00 in0.0 mm
12:25 AM 60.8°F16.0°C 55.3°F12.9°C - 5.0 mph SSE8.0 kmh SSE 11.0 mph17.7 kmh 29.56 in1001.0 mb 0.00 in0.0 mm 0.00 in0.0 mm 0.00 in0.0 mm
12:20 AM 60.8°F16.0°C 55.3°F12.9°C - 6.0 mph SSE9.7 kmh SSE 10.0 mph16.1 kmh 29.56 in1001.0 mb 0.00 in0.0 mm 0.00 in0.0 mm 0.00 in0.0 mm
12:15 AM 60.8°F16.0°C 55.2°F12.9°C - 5.0 mph SSE8.0 kmh SSE 9.0 mph14.5 kmh 29.56 in1001.0 mb 0.00 in0.0 mm 0.00 in0.0 mm 0.00 in0.0 mm
12:10 AM 60.9°F16.1°C 55.1°F12.8°C - 4.0 mph SE6.4 kmh SE 10.0 mph16.1 kmh 29.56 in1001.0 mb 0.00 in0.0 mm 0.00 in0.0 mm 0.00 in0.0 mm
12:05 AM 61.0°F16.1°C 55.1°F12.8°C - 5.0 mph SSE8.0 kmh SSE 9.0 mph14.5 kmh 29.56 in1001.0 mb 0.00 in0.0 mm 0.00 in0.0 mm 0.00 in0.0 mm
12:00 AM 61.1°F16.2°C 55.3°F12.9°C - 5.0 mph SE8.0 kmh SE 9.0 mph14.5 kmh 29.56 in1001.0 mb 0.00 in0.0 mm 0.00 in0.0 mm 0.00 in0.0 mm